Time;durP1;ratioP1;P1;durP2;ratioP2;P2;SDS_P1;SDS_P2;PMS_P1;PMS_P2;Temp;Humidity;BMP_temperature;BMP_pressure;BME280_temperature;BME280_humidity;BME280_pressure;Samples;Min_cycle;Max_cycle;Signal;HPM_P1;HPM_P2
2022/08/02 00:00:36;;;;;;;6.97;1.88;;;;;;;17.05;73.32;101825.03;10457960;28;20025;-67
2022/08/02 00:05:36;;;;;;;1.77;1.67;;;;;;;17.07;73.01;101819.31;10456700;28;20086;-67
2022/08/02 00:10:37;;;;;;;4.53;1.90;;;;;;;17.02;72.70;101794.53;10456115;28;20563;-67
2022/08/02 00:15:37;;;;;;;2.38;2.08;;;;;;;16.94;72.48;101806.56;10455707;28;20377;-67
2022/08/02 00:20:37;;;;;;;3.20;1.75;;;;;;;16.88;72.28;101799.22;10457433;28;20112;-68
2022/08/02 00:25:38;;;;;;;7.47;1.98;;;;;;;16.89;72.67;101795.44;10455847;28;20477;-68
2022/08/02 00:30:38;;;;;;;2.85;1.90;;;;;;;16.92;72.33;101795.84;10455374;28;20025;-67
2022/08/02 00:35:38;;;;;;;1.20;0.95;;;;;;;16.91;72.14;101801.50;10456700;28;20040;-67
2022/08/02 00:40:39;;;;;;;5.75;2.17;;;;;;;16.88;72.13;101793.75;10455559;28;20468;-67
2022/08/02 00:45:40;;;;;;;1.70;1.60;;;;;;;16.85;71.61;101795.03;10456529;28;20032;-67
2022/08/02 00:50:40;;;;;;;6.10;2.20;;;;;;;16.77;71.45;101787.06;10456328;28;20072;-67
2022/08/02 00:55:41;;;;;;;2.75;2.00;;;;;;;16.68;71.55;101782.84;10456433;28;20139;-67
2022/08/02 01:00:41;;;;;;;7.28;2.50;;;;;;;16.67;72.12;101782.03;10455563;28;20033;-67
2022/08/02 01:05:43;;;;;;;5.40;2.70;;;;;;;16.64;72.34;101768.78;10455939;28;20032;-67
2022/08/02 01:10:43;;;;;;;4.25;2.15;;;;;;;16.60;72.18;101770.28;10454281;28;20084;-67
2022/08/02 01:15:47;;;;;;;5.15;2.80;;;;;;;16.54;72.09;101773.03;10455516;28;20052;-66
2022/08/02 01:21:12;;;;;;;2.33;2.03;;;;;;;16.47;71.90;101764.88;10438165;28;20086;-67
2022/08/02 01:26:34;;;;;;;4.13;1.63;;;;;;;16.43;72.01;101769.94;10460518;28;20029;-67
2022/08/02 01:31:39;;;;;;;3.28;1.52;;;;;;;16.35;71.93;101761.94;10462553;28;20032;-67
2022/08/02 01:36:42;;;;;;;4.28;1.60;;;;;;;16.30;71.89;101772.66;10462571;28;20081;-67
2022/08/02 01:41:43;;;;;;;7.68;2.38;;;;;;;16.23;71.92;101769.13;10463618;28;20028;-66
2022/08/02 01:46:43;;;;;;;5.75;2.38;;;;;;;16.14;72.30;101763.03;10445544;28;20041;-66
2022/08/02 01:57:05;;;;;;;1.00;1.00;;;;;;;16.07;72.47;101758.66;10462641;28;20056;-68
2022/08/02 02:02:06;;;;;;;9.75;3.00;;;;;;;16.02;72.27;101757.41;10448331;28;20067;-67
2022/08/02 02:07:07;;;;;;;1.90;1.80;;;;;;;16.07;72.73;101758.66;10450658;28;20037;-67
2022/08/02 02:12:07;;;;;;;6.72;2.13;;;;;;;16.03;72.94;101747.31;10461120;28;20114;-68
2022/08/02 02:17:09;;;;;;;1.65;1.55;;;;;;;15.99;72.82;101744.16;10461608;28;20353;-67
2022/08/02 02:22:10;;;;;;;8.50;2.22;;;;;;;15.95;73.05;101762.03;10444397;28;20033;-67
2022/08/02 02:27:11;;;;;;;2.00;1.83;;;;;;;15.92;72.87;101758.88;10461469;28;20392;-68
2022/08/02 02:32:11;;;;;;;1.33;1.30;;;;;;;16.03;73.34;101747.31;10460180;28;20041;-67
2022/08/02 02:37:15;;;;;;;2.88;1.60;;;;;;;16.11;73.21;101740.78;10459762;28;20055;-67
2022/08/02 02:42:16;;;;;;;2.20;2.00;;;;;;;16.21;73.08;101733.00;10459806;28;20389;-66
2022/08/02 02:47:16;;;;;;;1.52;1.33;;;;;;;16.21;72.94;101735.72;10459681;28;20044;-66
2022/08/02 02:52:17;;;;;;;7.93;2.15;;;;;;;16.30;72.22;101736.31;10442953;28;20025;-66
2022/08/02 02:57:17;;;;;;;5.93;2.30;;;;;;;16.30;71.84;101739.88;10442306;28;20029;-67
2022/08/02 03:02:18;;;;;;;2.35;1.95;;;;;;;16.32;71.92;101734.22;10442609;28;20053;-67
2022/08/02 03:07:18;;;;;;;8.48;2.67;;;;;;;16.36;71.48;101735.44;10442012;28;20033;-66
2022/08/02 03:12:18;;;;;;;2.50;1.95;;;;;;;16.34;70.50;101711.06;10460653;28;20037;-68
2022/08/02 03:17:19;;;;;;;8.77;2.95;;;;;;;16.44;70.00;101716.91;10460067;28;20040;-67
2022/08/02 03:22:19;;;;;;;2.40;1.83;;;;;;;16.39;69.73;101703.03;10458463;28;20058;-67
2022/08/02 03:27:19;;;;;;;2.15;1.48;;;;;;;16.35;69.43;101690.03;10458973;28;20035;-67
2022/08/02 03:32:20;;;;;;;1.27;1.27;;;;;;;16.33;69.57;101697.59;10458092;28;20063;-67
2022/08/02 03:37:20;;;;;;;5.53;2.40;;;;;;;16.26;69.29;101701.19;10441245;28;20044;-68
2022/08/02 03:42:21;;;;;;;9.35;2.22;;;;;;;16.24;69.35;101702.47;10457862;28;20048;-69
2022/08/02 03:47:21;;;;;;;7.80;1.92;;;;;;;16.19;68.88;101691.38;10456379;28;20453;-66
2022/08/02 03:52:22;;;;;;;1.60;1.50;;;;;;;16.23;68.89;101679.78;10440856;28;20392;-67
2022/08/02 03:57:23;;;;;;;4.85;2.25;;;;;;;16.17;69.10;101672.44;10456712;28;20028;-67
2022/08/02 04:02:23;;;;;;;1.98;1.88;;;;;;;16.13;69.33;101684.03;10458201;28;20177;-67
2022/08/02 04:07:23;;;;;;;2.40;2.22;;;;;;;16.10;69.21;101687.19;10458259;28;20037;-67
2022/08/02 04:12:24;;;;;;;3.08;2.30;;;;;;;15.97;69.69;101680.69;10456453;28;20040;-67
2022/08/02 04:17:24;;;;;;;5.43;1.80;;;;;;;15.92;69.58;101679.66;10458036;28;20447;-67
2022/08/02 04:22:28;;;;;;;4.05;2.78;;;;;;;15.78;69.47;101685.16;10456710;28;20032;-68
2022/08/02 04:27:28;;;;;;;8.10;2.35;;;;;;;15.74;69.93;101677.63;10440408;28;20032;-66
2022/08/02 04:32:29;;;;;;;4.10;2.70;;;;;;;15.80;70.90;101672.13;10442458;28;20033;-68
2022/08/02 04:37:29;;;;;;;3.60;1.90;;;;;;;15.96;71.42;101673.56;10440081;28;20432;-67
2022/08/02 04:42:30;;;;;;;2.30;2.10;;;;;;;16.09;71.19;101666.38;10455515;28;20065;-67
2022/08/02 04:47:30;;;;;;;2.03;1.92;;;;;;;16.16;71.28;101672.66;10455145;28;20480;-65
2022/08/02 04:52:30;;;;;;;11.05;3.08;;;;;;;16.23;71.76;101668.84;10456269;28;20515;-70
2022/08/02 05:02:51;;;;;;;5.32;3.13;;;;;;;16.57;71.70;101661.34;10454669;28;20077;-73
2022/08/02 05:07:51;;;;;;;9.95;3.22;;;;;;;16.65;72.34;101661.06;10455741;28;20481;-66
2022/08/02 05:12:53;;;;;;;3.47;3.17;;;;;;;16.90;72.05;101663.88;10455434;28;20045;-65
2022/08/02 05:17:53;;;;;;;5.90;3.22;;;;;;;17.78;70.32;101678.56;10454468;28;20126;-66
2022/08/02 05:22:54;;;;;;;3.30;2.72;;;;;;;18.52;68.97;101671.16;10455353;28;20036;-69
2022/08/02 05:27:54;;;;;;;5.15;3.90;;;;;;;18.95;67.91;101670.13;10454837;28;20033;-67
2022/08/02 05:32:54;;;;;;;3.72;2.75;;;;;;;19.26;67.15;101660.75;10453953;28;20079;-69
2022/08/02 05:37:55;;;;;;;7.88;3.90;;;;;;;19.40;66.27;101656.72;10454111;28;20051;-68
2022/08/02 05:42:55;;;;;;;5.55;3.50;;;;;;;19.57;66.48;101651.34;10454005;28;20033;-68
2022/08/02 05:47:56;;;;;;;6.20;3.78;;;;;;;19.95;66.35;101666.53;10454960;28;20064;-68
2022/08/02 05:53:04;;;;;;;4.60;3.47;;;;;;;20.61;66.18;101672.56;10454187;28;20033;-69
2022/08/02 05:58:22;;;;;;;4.78;3.88;;;;;;;21.16;63.68;101649.09;10453403;28;20458;-69
2022/08/02 06:03:38;;;;;;;13.63;4.78;;;;;;;21.59;63.55;101648.41;10454110;28;20479;-69
2022/08/02 06:08:44;;;;;;;6.10;4.53;;;;;;;22.24;63.28;101652.34;10438083;28;20049;-69
2022/08/02 06:13:44;;;;;;;11.50;4.87;;;;;;;21.83;66.14;101652.63;10460609;28;20049;-68
2022/08/02 06:18:45;;;;;;;12.60;5.97;;;;;;;21.35;67.40;101653.28;10461492;28;20311;-68
2022/08/02 06:23:45;;;;;;;7.22;6.47;;;;;;;21.32;68.05;101648.25;10444633;28;20029;-67
2022/08/02 06:28:46;;;;;;;16.52;10.02;;;;;;;21.45;69.31;101645.16;10460249;28;20029;-68
2022/08/02 06:33:46;;;;;;;15.77;11.10;;;;;;;22.19;70.06;101646.78;10443461;28;20374;-69
2022/08/02 06:39:03;;;;;;;23.58;15.00;;;;;;;22.40;72.11;101651.44;10459713;28;20037;-68
2022/08/02 06:44:04;;;;;;;28.80;18.10;;;;;;;22.22;73.47;101649.00;10459922;28;20036;-68
2022/08/02 06:49:04;;;;;;;39.20;17.75;;;;;;;22.93;72.68;101654.47;10460583;28;20033;-69
2022/08/02 06:54:05;;;;;;;23.40;16.23;;;;;;;23.93;72.39;101659.38;10461808;28;20036;-68
2022/08/02 06:59:05;;;;;;;19.73;15.02;;;;;;;24.75;70.72;101652.22;10443591;28;20056;-68
2022/08/02 07:04:06;;;;;;;17.83;14.90;;;;;;;25.54;69.63;101647.28;10460173;28;20042;-69
2022/08/02 07:09:06;;;;;;;17.38;13.18;;;;;;;25.86;67.79;101639.47;10458183;28;20480;-68
2022/08/02 07:14:07;;;;;;;16.98;12.32;;;;;;;26.32;65.98;101641.19;10458481;28;20033;-69
2022/08/02 07:19:07;;;;;;;20.15;12.93;;;;;;;26.61;61.14;101621.88;10459811;28;20045;-69
2022/08/02 07:24:08;;;;;;;19.25;11.90;;;;;;;26.30;63.42;101610.13;10457613;28;20037;-69
2022/08/02 07:29:08;;;;;;;14.70;9.70;;;;;;;25.99;65.06;101618.59;10458980;28;20064;-68
2022/08/02 07:34:08;;;;;;;13.98;9.73;;;;;;;26.39;64.60;101617.56;10458960;28;20040;-69
2022/08/02 07:39:09;;;;;;;19.08;10.63;;;;;;;27.13;60.50;101609.28;10458716;28;20040;-69
2022/08/02 07:44:09;;;;;;;13.90;10.63;;;;;;;28.14;59.99;101605.69;10459048;28;20052;-69
2022/08/02 07:49:09;;;;;;;18.98;12.55;;;;;;;27.79;57.28;101611.44;10458106;28;20045;-69
2022/08/02 07:54:10;;;;;;;16.77;12.82;;;;;;;27.46;59.56;101609.53;10457151;28;20032;-68
2022/08/02 07:59:10;;;;;;;13.90;9.18;;;;;;;27.09;59.37;101610.94;10457898;28;20040;-68
2022/08/02 08:04:11;;;;;;;13.00;10.00;;;;;;;27.53;58.69;101602.47;10457275;28;20051;-68
2022/08/02 08:09:11;;;;;;;13.25;9.48;;;;;;;27.57;57.58;101603.56;10439352;28;20048;-69
2022/08/02 08:14:11;;;;;;;10.63;9.55;;;;;;;27.88;56.88;101611.56;10457134;28;20046;-69
2022/08/02 08:19:12;;;;;;;11.70;8.90;;;;;;;28.01;56.36;101583.00;10459649;28;20037;-69
2022/08/02 08:24:12;;;;;;;13.18;10.77;;;;;;;28.44;54.01;101587.75;10456472;28;20274;-79
2022/08/02 08:29:12;;;;;;;12.77;9.38;;;;;;;28.58;53.58;101604.53;10457933;28;20396;-79
2022/08/02 08:34:13;;;;;;;10.47;8.30;;;;;;;29.62;53.06;101597.75;10457437;28;20049;-79
2022/08/02 08:39:13;;;;;;;9.30;7.95;;;;;;;29.62;51.75;101603.34;10455863;28;20361;-79
2022/08/02 08:44:14;;;;;;;9.38;8.43;;;;;;;29.67;51.90;101608.81;10457962;28;20044;-79
2022/08/02 08:49:30;;;;;;;12.50;9.18;;;;;;;28.37;52.80;101613.19;10458183;28;20108;-78
2022/08/02 08:54:32;;;;;;;16.55;7.65;;;;;;;28.44;52.00;101610.88;10456022;28;20033;-79
2022/08/02 08:59:32;;;;;;;10.90;7.53;;;;;;;28.50;52.07;101604.09;10458351;28;20456;-79
2022/08/02 09:04:33;;;;;;;9.05;5.60;;;;;;;28.40;52.04;101618.19;10455907;28;20037;-79
2022/08/02 09:09:33;;;;;;;10.55;6.93;;;;;;;28.86;51.98;101619.44;10456625;28;20075;-79
2022/08/02 09:14:34;;;;;;;10.57;7.30;;;;;;;28.63;48.82;101612.81;10456742;28;20036;-79
2022/08/02 09:19:35;;;;;;;8.05;5.95;;;;;;;29.00;49.83;101611.94;10455815;28;20281;-79
2022/08/02 09:24:44;;;;;;;6.97;5.53;;;;;;;29.23;45.73;101621.34;10438595;28;20094;-79
2022/08/02 09:29:48;;;;;;;8.63;5.80;;;;;;;28.31;49.52;101611.59;10438964;28;20087;-79
2022/08/02 09:34:52;;;;;;;6.80;5.20;;;;;;;28.56;48.09;101623.50;10455404;28;20485;-79
2022/08/02 09:39:52;;;;;;;12.98;6.05;;;;;;;28.70;47.77;101625.25;10455290;28;20041;-78
2022/08/02 09:44:57;;;;;;;6.20;5.60;;;;;;;28.68;50.09;101621.91;10457722;28;20037;-79
2022/08/02 09:49:57;;;;;;;16.83;5.32;;;;;;;29.47;49.10;101623.13;10465779;28;20061;-79
2022/08/02 09:55:04;;;;;;;4.97;4.53;;;;;;;30.18;44.41;101624.50;10463071;28;20052;-79
2022/08/02 10:00:08;;;;;;;10.00;5.03;;;;;;;30.25;46.89;101618.50;10462441;28;20029;-79
2022/08/02 10:05:09;;;;;;;6.13;4.75;;;;;;;30.37;46.05;101615.19;10463720;28;20037;-79
2022/08/02 10:10:09;;;;;;;7.03;6.35;;;;;;;30.76;46.51;101615.38;10464135;28;20052;-79
2022/08/02 10:15:10;;;;;;;8.27;6.03;;;;;;;30.39;46.35;101632.47;10444736;28;20040;-78
2022/08/02 10:20:10;;;;;;;5.25;4.85;;;;;;;31.14;45.24;101626.16;10462255;28;20025;-78
2022/08/02 10:25:11;;;;;;;5.85;5.07;;;;;;;30.77;44.21;101625.44;10461690;28;20064;-78
2022/08/02 10:30:11;;;;;;;9.00;5.60;;;;;;;31.77;43.86;101612.19;10460770;28;20033;-78
2022/08/02 10:35:16;;;;;;;6.88;4.78;;;;;;;31.13;44.30;101610.53;10444397;28;20037;-79
2022/08/02 10:40:22;;;;;;;7.80;4.95;;;;;;;31.21;43.01;101614.56;10444242;28;20029;-78
2022/08/02 10:45:22;;;;;;;5.85;5.35;;;;;;;30.91;45.17;101607.75;10445636;28;20103;-78
2022/08/02 10:50:55;;;;;;;5.65;5.15;;;;;;;32.47;45.48;101602.81;10460643;28;20514;-78
2022/08/02 10:55:58;;;;;;;9.88;4.97;;;;;;;32.78;43.12;101615.88;10448594;28;20045;-79
2022/08/02 11:01:28;;;;;;;6.30;4.82;;;;;;;32.81;40.59;101613.22;10461826;28;20372;-78
2022/08/02 11:06:29;;;;;;;5.07;4.03;;;;;;;32.06;42.96;101603.25;10456992;28;20047;-79
2022/08/02 11:11:29;;;;;;;6.77;3.73;;;;;;;31.06;44.04;101603.75;10461153;28;20052;-79
2022/08/02 11:17:04;;;;;;;5.07;3.60;;;;;;;31.31;43.89;101607.84;10459572;28;20273;-78
2022/08/02 11:22:05;;;;;;;3.22;2.92;;;;;;;31.35;42.72;101606.09;10461223;28;20258;-78
2022/08/02 11:27:07;;;;;;;4.53;4.13;;;;;;;30.89;41.55;101602.50;10460035;28;20190;-79
2022/08/02 11:32:13;;;;;;;6.63;2.95;;;;;;;30.93;40.85;101608.28;10442503;28;20029;-78
2022/08/02 11:37:30;;;;;;;6.00;2.38;;;;;;;31.68;37.86;101598.97;10461136;28;20063;-78
2022/08/02 11:42:34;;;;;;;3.88;2.92;;;;;;;32.00;40.02;101588.56;10459892;28;20059;-78
2022/08/02 11:47:55;;;;;;;2.83;2.15;;;;;;;32.59;37.59;101605.81;10459385;28;20075;-78
2022/08/02 11:52:55;;;;;;;1.88;1.75;;;;;;;32.49;34.04;101594.94;10459212;28;20124;-78
2022/08/02 11:58:03;;;;;;;2.03;1.75;;;;;;;32.95;34.95;101604.59;10459511;28;20037;-79
2022/08/02 12:03:03;;;;;;;4.72;2.63;;;;;;;32.76;34.75;101598.53;10459554;28;20412;-78
2022/08/02 12:08:07;;;;;;;4.82;2.50;;;;;;;32.19;35.17;101580.66;10458865;28;20060;-79
2022/08/02 12:13:07;;;;;;;2.60;2.22;;;;;;;31.94;37.83;101584.25;10458828;28;20040;-78
2022/08/02 12:23:27;;;;;;;2.72;2.50;;;;;;;33.29;36.52;101574.84;10458546;28;20032;-79
2022/08/02 12:28:35;;;;;;;3.03;2.22;;;;;;;33.31;34.56;101569.69;10440721;28;20127;-78
2022/08/02 12:33:52;;;;;;;2.05;1.60;;;;;;;32.99;36.37;101577.56;10460123;28;20120;-78
2022/08/02 12:38:59;;;;;;;2.42;1.77;;;;;;;33.25;36.54;101577.50;10459117;28;20527;-78
2022/08/02 12:43:59;;;;;;;2.05;1.95;;;;;;;33.19;35.45;101592.88;10456905;28;20402;-79
2022/08/02 12:49:00;;;;;;;2.90;1.50;;;;;;;32.81;37.19;101567.53;10456129;28;20033;-79
2022/08/02 12:54:14;;;;;;;3.13;2.30;;;;;;;33.40;38.29;101558.44;10459155;28;20036;-79
2022/08/02 12:59:15;;;;;;;4.75;2.05;;;;;;;34.13;37.53;101566.69;10457709;28;20033;-78
2022/08/02 13:04:15;;;;;;;3.92;2.35;;;;;;;33.84;38.49;101548.66;10455940;28;20041;-78
2022/08/02 13:09:15;;;;;;;5.43;1.97;;;;;;;33.33;38.00;101554.16;10457212;28;20489;-79
2022/08/02 13:14:16;;;;;;;2.92;2.03;;;;;;;32.75;38.70;101552.00;10457173;28;20270;-78
2022/08/02 13:19:16;;;;;;;8.40;3.00;;;;;;;32.67;39.87;101538.81;10456435;28;20100;-78
2022/08/02 13:24:17;;;;;;;4.43;2.97;;;;;;;32.98;39.95;101541.44;10457702;28;20033;-78
2022/08/02 13:29:17;;;;;;;9.50;2.35;;;;;;;32.42;40.81;101536.50;10457386;28;20436;-78
2022/08/02 13:34:18;;;;;;;3.53;2.53;;;;;;;31.94;41.12;101536.63;10455766;28;20036;-79
2022/08/02 13:39:18;;;;;;;2.28;2.08;;;;;;;31.90;41.54;101538.44;10456175;28;20041;-78
2022/08/02 13:44:19;;;;;;;3.00;2.40;;;;;;;31.73;43.33;101545.63;10458410;28;20406;-78
2022/08/02 13:49:19;;;;;;;3.33;2.15;;;;;;;30.90;44.21;101527.81;10457989;28;20101;-78
2022/08/02 13:54:19;;;;;;;10.25;3.13;;;;;;;30.56;46.17;101529.19;10457184;28;20041;-78
2022/08/02 13:59:20;;;;;;;7.00;4.00;;;;;;;30.24;47.41;101531.06;10438676;28;20025;-77
2022/08/02 14:04:21;;;;;;;5.97;3.28;;;;;;;29.91;48.76;101524.84;10456278;28;20267;-78
2022/08/02 14:09:21;;;;;;;8.90;4.13;;;;;;;30.50;48.24;101522.91;10454876;28;20556;-78
2022/08/02 14:14:22;;;;;;;16.05;3.88;;;;;;;31.02;47.90;101519.66;10457577;28;20040;-78
2022/08/02 14:19:22;;;;;;;3.70;3.33;;;;;;;30.99;47.68;101515.53;10456171;28;20108;-77
2022/08/02 14:24:23;;;;;;;6.38;2.70;;;;;;;30.92;48.01;101503.13;10453870;28;20539;-77
2022/08/02 14:29:23;;;;;;;2.92;2.53;;;;;;;31.31;47.90;101504.31;10455435;28;20061;-77
2022/08/02 14:34:23;;;;;;;2.97;2.63;;;;;;;31.23;48.09;101509.53;10460746;28;20037;-77
2022/08/02 14:39:24;;;;;;;7.30;3.07;;;;;;;31.40;48.46;101488.41;10462047;28;20032;-78
2022/08/02 14:44:24;;;;;;;9.50;3.77;;;;;;;31.32;48.17;101492.78;10461349;28;20341;-77
2022/08/02 14:49:24;;;;;;;8.93;3.13;;;;;;;30.91;49.13;101490.28;10461384;28;20723;-77
2022/08/02 14:54:27;;;;;;;3.58;2.45;;;;;;;30.59;50.03;101479.06;10462767;28;20083;-77
2022/08/02 14:59:28;;;;;;;12.85;2.08;;;;;;;30.30;50.16;101482.31;10461951;28;20055;-77
2022/08/02 15:04:31;;;;;;;5.35;2.65;;;;;;;30.02;51.17;101483.53;10444785;28;20040;-78
2022/08/02 15:09:31;;;;;;;5.63;3.30;;;;;;;29.91;51.82;101473.75;10461925;28;20045;-77
2022/08/02 15:14:31;;;;;;;5.28;2.30;;;;;;;29.96;52.05;101482.00;10463181;28;20396;-77
2022/08/02 15:19:32;;;;;;;4.18;2.53;;;;;;;29.87;51.77;101479.97;10461170;28;20047;-77
2022/08/02 15:24:32;;;;;;;4.75;2.20;;;;;;;29.46;52.25;101480.00;10462217;28;20033;-77
2022/08/02 15:29:33;;;;;;;2.37;2.17;;;;;;;29.25;52.52;101468.41;10463194;28;20515;-77
2022/08/02 15:34:33;;;;;;;2.00;1.80;;;;;;;29.16;52.33;101481.44;10462636;28;20297;-77
2022/08/02 15:39:34;;;;;;;4.65;3.00;;;;;;;28.82;52.97;101484.59;10459238;28;20120;-78
2022/08/02 15:44:34;;;;;;;5.63;2.42;;;;;;;28.67;53.88;101483.72;10442199;28;20357;-77
2022/08/02 15:49:34;;;;;;;4.05;2.40;;;;;;;28.58;53.92;101487.50;10460348;28;20048;-77
2022/08/02 15:54:35;;;;;;;2.30;2.10;;;;;;;28.38;53.79;101485.84;10459799;28;20051;-77
2022/08/02 15:59:35;;;;;;;8.70;2.83;;;;;;;28.14;54.53;101478.41;10459470;28;20037;-76
2022/08/02 16:04:36;;;;;;;4.72;2.83;;;;;;;28.14;54.85;101488.72;10460084;28;20047;-77
2022/08/02 16:09:36;;;;;;;4.20;2.97;;;;;;;28.08;54.75;101485.22;10443403;28;20140;-76
2022/08/02 16:14:36;;;;;;;3.45;2.08;;;;;;;27.79;54.89;101482.56;10459033;28;20041;-77
2022/08/02 16:19:37;;;;;;;4.18;2.22;;;;;;;27.55;55.78;101475.06;10459198;28;20033;-77
2022/08/02 16:24:37;;;;;;;8.35;3.05;;;;;;;27.10;56.83;101474.44;10458643;28;20040;-76
2022/08/02 16:29:38;;;;;;;5.03;3.42;;;;;;;26.52;57.38;101477.25;10459171;28;20086;-76
2022/08/02 16:34:38;;;;;;;3.40;1.85;;;;;;;26.16;59.58;101488.63;10440379;28;20480;-75
2022/08/02 16:39:39;;;;;;;5.50;2.85;;;;;;;25.78;60.74;101483.81;10441684;28;20062;-76
2022/08/02 16:44:39;;;;;;;2.97;1.93;;;;;;;25.38;61.76;101488.44;10457983;28;20396;-76
2022/08/02 16:49:39;;;;;;;7.65;2.88;;;;;;;25.08;64.67;101481.00;10458955;28;20337;-75
2022/08/02 16:54:40;;;;;;;5.30;2.63;;;;;;;24.99;64.26;101478.81;10456974;28;20040;-77
2022/08/02 16:59:40;;;;;;;2.97;1.92;;;;;;;24.95;65.35;101463.88;10456849;28;20029;-75
2022/08/02 17:04:41;;;;;;;4.30;2.00;;;;;;;25.02;63.86;101461.63;10457378;28;20040;-76
2022/08/02 17:09:41;;;;;;;1.35;1.20;;;;;;;24.86;65.53;101461.94;10455154;28;20049;-76
2022/08/02 17:14:44;;;;;;;3.47;2.17;;;;;;;24.73;65.94;101461.41;10456006;28;20090;-75
2022/08/02 17:19:44;;;;;;;4.35;1.35;;;;;;;24.61;67.12;101460.84;10457078;28;20123;-76
2022/08/02 17:24:45;;;;;;;1.25;1.25;;;;;;;24.62;66.77;101453.38;10457050;28;20041;-75
2022/08/02 17:29:45;;;;;;;8.75;3.05;;;;;;;24.64;66.47;101452.00;10455574;28;20040;-75
2022/08/02 17:34:46;;;;;;;2.80;2.60;;;;;;;24.64;65.51;101453.94;10455149;28;20044;-75
2022/08/02 17:39:46;;;;;;;2.13;1.83;;;;;;;24.58;64.93;101455.88;10455137;28;20044;-76
2022/08/02 17:44:47;;;;;;;8.88;2.35;;;;;;;24.52;65.36;101457.81;10457788;28;20040;-76
2022/08/02 17:49:47;;;;;;;3.10;1.48;;;;;;;24.36;67.23;101462.47;10456837;28;20040;-75
2022/08/02 17:54:48;;;;;;;5.68;1.95;;;;;;;24.30;66.71;101460.00;10457171;28;20036;-75
2022/08/02 17:59:58;;;;;;;12.15;2.20;;;;;;;24.33;65.45;101462.22;10455023;28;20037;-75
2022/08/02 18:04:59;;;;;;;6.57;2.70;;;;;;;24.33;65.00;101459.44;10455810;28;20146;-75
2022/08/02 18:09:59;;;;;;;2.03;1.38;;;;;;;24.29;66.46;101461.94;10461569;28;20049;-75
2022/08/02 18:14:59;;;;;;;10.32;2.75;;;;;;;24.05;69.59;101469.09;10464600;28;20084;-75
2022/08/02 18:20:00;;;;;;;4.05;1.75;;;;;;;23.82;70.95;101470.44;10464017;28;20072;-75
2022/08/02 18:25:00;;;;;;;2.45;2.25;;;;;;;23.65;73.40;101470.63;10462679;28;20491;-74
2022/08/02 18:30:01;;;;;;;2.55;1.40;;;;;;;23.49;74.30;101477.22;10464413;28;20084;-75
2022/08/02 18:35:01;;;;;;;2.92;2.00;;;;;;;23.37;74.83;101467.19;10463142;28;20043;-75
2022/08/02 18:40:02;;;;;;;11.93;1.88;;;;;;;23.35;71.93;101461.09;10462829;28;20029;-75
2022/08/02 18:45:02;;;;;;;6.70;2.33;;;;;;;23.28;73.98;101456.94;10462710;28;20033;-75
2022/08/02 18:50:03;;;;;;;1.83;1.33;;;;;;;23.21;73.89;101443.34;10462941;28;20106;-75
2022/08/02 18:55:04;;;;;;;3.78;1.30;;;;;;;23.16;73.05;101457.97;10461463;28;20091;-75
2022/08/02 19:00:05;;;;;;;0.85;0.85;;;;;;;23.05;75.28;101453.50;10461254;28;20528;-75
2022/08/02 19:05:06;;;;;;;4.13;1.42;;;;;;;23.00;75.96;101450.69;10460604;28;20111;-75
2022/08/02 19:10:07;;;;;;;4.47;1.02;;;;;;;22.95;74.85;101451.50;10461190;28;20071;-75
2022/08/02 19:15:09;;;;;;;6.80;1.25;;;;;;;22.87;76.03;101448.38;10460784;28;20476;-75
2022/08/02 19:20:10;;;;;;;1.20;1.15;;;;;;;22.81;76.30;101447.50;10460825;28;20128;-75
2022/08/02 19:25:10;;;;;;;11.18;1.60;;;;;;;22.72;76.49;101443.59;10461654;28;20162;-74
2022/08/02 19:30:12;;;;;;;6.18;2.75;;;;;;;22.61;77.57;101444.63;10459231;28;20191;-75
2022/08/02 19:35:13;;;;;;;2.72;1.77;;;;;;;22.52;77.43;101447.84;10460348;28;20112;-75
2022/08/02 19:40:22;;;;;;;12.63;2.60;;;;;;;22.42;77.76;101446.94;10460729;28;20028;-75
2022/08/02 19:45:23;;;;;;;1.90;1.60;;;;;;;22.27;79.79;101455.91;10444538;28;20124;-74
2022/08/02 19:50:24;;;;;;;1.60;1.08;;;;;;;22.20;78.01;101444.28;10459550;28;20056;-75
2022/08/02 19:55:24;;;;;;;1.45;1.40;;;;;;;22.11;79.93;101449.41;10460409;28;20068;-74
2022/08/02 20:00:24;;;;;;;2.38;1.08;;;;;;;22.04;80.89;101449.63;10458262;28;20354;-74
2022/08/02 20:05:25;;;;;;;13.40;1.98;;;;;;;21.93;82.49;101447.03;10459361;28;20033;-75
2022/08/02 20:10:26;;;;;;;10.35;1.80;;;;;;;21.88;81.94;101458.81;10459791;28;20045;-75
2022/08/02 20:15:26;;;;;;;4.47;2.38;;;;;;;21.79;83.74;101454.88;10458528;28;20037;-75
2022/08/02 20:20:27;;;;;;;4.45;2.10;;;;;;;21.72;82.89;101455.06;10461327;28;20036;-76
2022/08/02 20:25:27;;;;;;;3.20;1.65;;;;;;;21.66;84.11;101456.09;10459000;28;20045;-76
2022/08/02 20:30:27;;;;;;;6.75;1.98;;;;;;;21.59;84.45;101460.97;10457609;28;20029;-75
2022/08/02 20:35:28;;;;;;;2.05;1.48;;;;;;;21.57;83.33;101469.53;10457691;28;20040;-76
2022/08/02 20:40:28;;;;;;;8.02;1.92;;;;;;;21.49;85.43;101460.88;10458693;28;20419;-75
2022/08/02 20:45:29;;;;;;;5.55;2.17;;;;;;;21.45;85.93;101462.47;10456910;28;20119;-74
2022/08/02 20:50:47;;;;;;;10.13;2.88;;;;;;;21.37;87.54;101460.97;10457948;28;20468;-73
2022/08/02 20:55:49;;;;;;;7.07;2.83;;;;;;;21.33;85.20;101446.88;10458388;28;20041;-74
2022/08/02 21:00:51;;;;;;;4.85;1.83;;;;;;;21.28;85.25;101455.06;10457366;28;20116;-74
2022/08/02 21:05:51;;;;;;;5.57;1.67;;;;;;;21.25;86.12;101454.72;10458529;28;20041;-74
2022/08/02 21:10:53;;;;;;;2.47;2.28;;;;;;;21.20;85.45;101446.41;10457754;28;20409;-74
2022/08/02 21:15:53;;;;;;;14.27;3.65;;;;;;;21.13;85.33;101452.13;10457213;28;20032;-74
2022/08/02 21:20:53;;;;;;;8.60;2.38;;;;;;;21.04;85.98;101448.97;10439681;28;20033;-74
2022/08/02 21:25:55;;;;;;;3.78;2.55;;;;;;;20.98;88.96;101452.72;10456895;28;20037;-74
2022/08/02 21:30:55;;;;;;;12.95;3.55;;;;;;;20.98;86.60;101449.16;10456726;28;20383;-74
2022/08/02 21:35:56;;;;;;;12.32;2.38;;;;;;;20.92;89.04;101445.47;10456785;28;20037;-74
2022/08/02 21:40:56;;;;;;;3.60;2.80;;;;;;;20.88;90.55;101447.06;10456138;28;20035;-74
2022/08/02 21:45:56;;;;;;;12.77;3.10;;;;;;;20.86;91.09;101452.00;10464999;28;20095;-74
2022/08/02 21:50:57;;;;;;;5.63;2.78;;;;;;;20.83;91.04;101442.31;10463139;28;20033;-74
2022/08/02 21:55:57;;;;;;;2.47;2.28;;;;;;;20.77;91.59;101442.50;10463348;28;20052;-74
2022/08/02 22:00:57;;;;;;;8.55;3.40;;;;;;;20.74;91.80;101443.84;10464166;28;20033;-74
2022/08/02 22:05:58;;;;;;;6.72;3.00;;;;;;;20.75;89.29;101444.69;10463675;28;20036;-74
2022/08/02 22:11:01;;;;;;;10.60;2.55;;;;;;;20.73;89.26;101446.84;10462715;28;20064;-74
2022/08/02 22:16:03;;;;;;;8.80;2.88;;;;;;;20.70;90.10;101447.34;10463967;28;20120;-74
2022/08/02 22:21:04;;;;;;;10.55;4.03;;;;;;;20.66;90.63;101445.09;10462572;28;20044;-74
2022/08/02 22:26:04;;;;;;;6.70;2.20;;;;;;;20.60;91.18;101439.78;10446713;28;20037;-74
2022/08/02 22:31:05;;;;;;;17.27;3.28;;;;;;;20.57;91.00;101452.09;10463776;28;20460;-74
2022/08/02 22:36:06;;;;;;;4.53;2.50;;;;;;;20.54;91.49;101447.09;10463689;28;20036;-74
2022/08/02 22:41:06;;;;;;;10.48;2.60;;;;;;;20.52;92.52;101441.03;10460949;28;20396;-74
2022/08/02 22:46:07;;;;;;;6.30;2.72;;;;;;;20.49;92.85;101438.75;10462577;28;20033;-75
2022/08/02 22:51:07;;;;;;;10.68;2.35;;;;;;;20.47;92.15;101442.84;10447823;28;20108;-75
2022/08/02 22:56:08;;;;;;;7.55;2.28;;;;;;;20.41;90.80;101439.16;10461868;28;20395;-76
2022/08/02 23:01:08;;;;;;;4.55;2.65;;;;;;;20.37;92.06;101447.06;10460885;28;20033;-75
2022/08/02 23:06:08;;;;;;;11.18;3.45;;;;;;;20.31;94.97;101450.00;10460313;28;20498;-76
2022/08/02 23:11:09;;;;;;;5.80;2.17;;;;;;;20.33;94.13;101440.41;10462103;28;20075;-74
2022/08/02 23:21:31;;;;;;;7.35;4.50;;;;;;;20.29;93.58;101439.22;10460437;28;20037;-74